createdAt,value
2023-02-28T00:01:07.605Z,1.15
2023-02-28T00:03:36.206Z,1.00
2023-02-28T00:06:07.471Z,0.93
2023-02-28T00:08:34.653Z,1.58
2023-02-28T00:11:15.734Z,1.10
2023-02-28T00:13:47.435Z,1.20
2023-02-28T00:16:22.809Z,1.10
2023-02-28T00:18:49.969Z,0.85
2023-02-28T00:21:18.431Z,1.40
2023-02-28T00:23:45.140Z,1.17
2023-02-28T00:26:11.817Z,1.25
2023-02-28T00:28:38.455Z,0.95
2023-02-28T00:31:05.747Z,1.10
2023-02-28T00:33:32.437Z,1.10
2023-02-28T00:36:04.869Z,1.20
2023-02-28T00:38:31.619Z,1.15
2023-02-28T00:40:59.523Z,1.20
2023-02-28T00:43:26.701Z,1.00
2023-02-28T00:45:53.311Z,0.98
2023-02-28T00:48:20.295Z,1.20
2023-02-28T00:50:50.298Z,1.40
2023-02-28T00:53:16.881Z,1.00
2023-02-28T00:55:43.442Z,1.05
2023-02-28T00:58:10.057Z,1.42
2023-02-28T01:00:36.585Z,0.98
2023-02-28T01:03:03.252Z,1.17
2023-02-28T01:05:29.882Z,1.50
2023-02-28T01:07:56.414Z,1.20
2023-02-28T01:10:23.056Z,4.50
2023-02-28T01:12:49.599Z,3.03
2023-02-28T01:15:16.297Z,2.50
2023-02-28T01:17:42.893Z,5.53
2023-02-28T01:20:10.806Z,2.90
2023-02-28T01:22:37.369Z,1.60
2023-02-28T01:25:04.483Z,3.97
2023-02-28T01:27:31.076Z,3.20
2023-02-28T01:29:57.664Z,2.45
2023-02-28T01:32:24.374Z,3.42
2023-02-28T01:34:50.989Z,6.15
2023-02-28T01:37:17.547Z,2.50
2023-02-28T01:39:44.084Z,1.42
2023-02-28T01:42:11.175Z,2.42
2023-02-28T01:45:01.697Z,1.85
2023-02-28T01:47:33.249Z,2.28
2023-02-28T01:50:01.733Z,1.85
2023-02-28T01:52:29.326Z,2.20
2023-02-28T01:55:00.348Z,1.80
2023-02-28T01:57:38.559Z,1.50
2023-02-28T02:00:09.048Z,1.50
2023-02-28T02:02:37.830Z,1.95
2023-02-28T02:05:09.723Z,1.70
2023-02-28T02:10:18.597Z,1.75
2023-02-28T02:13:22.397Z,4.90
2023-02-28T02:16:04.153Z,2.30
2023-02-28T02:18:33.470Z,1.70
2023-02-28T02:21:17.006Z,1.27
2023-02-28T02:24:05.302Z,1.35
2023-02-28T02:27:06.553Z,1.48
2023-02-28T02:29:38.986Z,1.08
2023-02-28T02:32:29.736Z,1.20
2023-02-28T02:35:23.665Z,1.40
2023-02-28T02:38:09.771Z,1.40
2023-02-28T02:40:43.668Z,1.42
2023-02-28T02:43:34.054Z,1.15
2023-02-28T02:46:06.525Z,1.20
2023-02-28T02:48:37.457Z,1.50
2023-02-28T02:51:12.925Z,1.50
2023-02-28T02:53:47.323Z,1.50
2023-02-28T02:56:16.135Z,1.23
2023-02-28T02:58:44.909Z,1.40
2023-02-28T03:01:31.507Z,1.38
2023-02-28T03:04:02.290Z,1.33
2023-02-28T03:06:29.368Z,1.35
2023-02-28T03:08:56.088Z,1.85
2023-02-28T03:11:22.874Z,2.17
2023-02-28T03:14:04.396Z,1.60
2023-02-28T03:16:36.285Z,1.77
2023-02-28T03:22:02.259Z,1.60
2023-02-28T03:24:56.607Z,1.60
2023-02-28T03:27:30.904Z,1.70
2023-02-28T03:30:05.220Z,1.95
2023-02-28T03:32:40.882Z,2.13
2023-02-28T03:35:32.052Z,1.90
2023-02-28T03:38:08.492Z,1.63
2023-02-28T03:40:38.076Z,1.80
2023-02-28T03:43:13.945Z,1.85
2023-02-28T03:45:42.703Z,1.50
2023-02-28T03:48:22.813Z,1.52
2023-02-28T03:50:54.595Z,1.50
2023-02-28T03:56:19.182Z,1.90
2023-02-28T03:58:56.673Z,1.95
2023-02-28T04:01:31.699Z,1.90
2023-02-28T04:03:58.750Z,1.98
2023-02-28T04:06:25.760Z,2.08
2023-02-28T04:08:52.521Z,1.65
2023-02-28T04:11:24.202Z,1.90
2023-02-28T04:13:51.142Z,1.60
2023-02-28T04:16:33.537Z,2.00
2023-02-28T04:19:04.016Z,1.90
2023-02-28T04:21:32.356Z,2.00
2023-02-28T04:24:01.593Z,2.05
2023-02-28T04:26:36.335Z,1.95
2023-02-28T04:29:05.514Z,1.98
2023-02-28T04:31:33.040Z,1.60
2023-02-28T04:33:59.731Z,2.00
2023-02-28T04:36:26.751Z,2.20
2023-02-28T04:38:53.715Z,2.20
2023-02-28T04:41:21.120Z,2.00
2023-02-28T04:43:48.251Z,1.90
2023-02-28T04:46:14.849Z,1.90
2023-02-28T04:48:41.794Z,2.00
2023-02-28T04:51:10.971Z,2.30
2023-02-28T04:53:39.989Z,2.00
2023-02-28T04:56:07.899Z,1.90
2023-02-28T04:58:35.685Z,2.05
2023-02-28T05:01:05.095Z,1.98
2023-02-28T05:03:31.730Z,2.45
2023-02-28T05:05:58.346Z,1.88
2023-02-28T05:08:24.959Z,1.83
2023-02-28T05:10:51.694Z,1.75
2023-02-28T05:13:18.237Z,2.20
2023-02-28T05:15:44.787Z,2.00
2023-02-28T05:18:11.433Z,2.05
2023-02-28T05:20:38.841Z,2.08
2023-02-28T05:23:05.491Z,2.00
2023-02-28T05:25:32.060Z,1.98
2023-02-28T05:27:58.593Z,1.67
2023-02-28T05:30:25.190Z,1.88
2023-02-28T05:32:52.798Z,1.95
2023-02-28T05:35:19.375Z,2.00
2023-02-28T05:37:46.066Z,2.92
2023-02-28T05:40:13.135Z,2.40
2023-02-28T05:42:40.191Z,2.10
2023-02-28T05:45:08.052Z,2.38
2023-02-28T05:47:35.765Z,2.63
2023-02-28T05:50:03.111Z,2.55
2023-02-28T05:52:31.117Z,2.90
2023-02-28T05:54:57.677Z,1.90
2023-02-28T05:57:25.092Z,2.65
2023-02-28T05:59:51.869Z,2.45
2023-02-28T06:02:19.137Z,2.33
2023-02-28T06:04:46.666Z,2.80
2023-02-28T06:07:13.412Z,2.58
2023-02-28T06:09:40.293Z,2.67
2023-02-28T06:12:08.269Z,2.58
2023-02-28T06:14:35.929Z,2.60
2023-02-28T06:17:03.715Z,2.63
2023-02-28T06:19:31.200Z,3.05
2023-02-28T06:21:58.296Z,3.30
2023-02-28T06:24:29.014Z,3.40
2023-02-28T06:26:55.813Z,3.60
2023-02-28T06:29:22.754Z,3.33
2023-02-28T06:31:49.736Z,3.33
2023-02-28T06:34:17.404Z,3.58
2023-02-28T06:36:44.527Z,3.28
2023-02-28T06:39:11.109Z,3.53
2023-02-28T06:41:53.532Z,4.22
2023-02-28T06:44:21.889Z,4.00
2023-02-28T06:46:49.668Z,3.75
2023-02-28T06:49:16.787Z,4.32
2023-02-28T06:51:46.128Z,4.00
2023-02-28T06:54:13.256Z,4.90
2023-02-28T06:56:40.045Z,4.13
2023-02-28T06:59:07.013Z,4.50
2023-02-28T07:01:33.945Z,3.90
2023-02-28T07:04:01.354Z,4.35
2023-02-28T07:06:28.306Z,4.20
2023-02-28T07:08:55.451Z,4.82
2023-02-28T07:11:23.984Z,4.65
2023-02-28T07:13:57.829Z,4.38
2023-02-28T07:16:26.649Z,4.32
2023-02-28T07:18:54.458Z,4.57
2023-02-28T07:21:21.635Z,4.10
2023-02-28T07:23:48.218Z,4.60
2023-02-28T07:26:18.149Z,4.25
2023-02-28T07:28:46.958Z,4.63
2023-02-28T07:31:18.124Z,4.38
2023-02-28T07:33:45.068Z,5.00
2023-02-28T07:36:15.076Z,4.78
2023-02-28T07:38:45.230Z,4.30
2023-02-28T07:41:13.703Z,4.38
2023-02-28T07:43:40.295Z,4.22
2023-02-28T07:46:12.233Z,4.35
2023-02-28T07:48:38.932Z,4.10
2023-02-28T07:51:05.803Z,4.45
2023-02-28T07:53:32.381Z,4.70
2023-02-28T07:56:00.602Z,4.50
2023-02-28T07:58:28.688Z,4.53
2023-02-28T08:00:55.825Z,4.10
2023-02-28T08:03:24.109Z,4.10
2023-02-28T08:05:51.153Z,4.35
2023-02-28T08:08:17.920Z,4.10
2023-02-28T08:10:44.927Z,4.30
2023-02-28T08:13:11.585Z,4.50
2023-02-28T08:15:38.175Z,4.40
2023-02-28T08:18:05.312Z,5.20
2023-02-28T08:20:31.866Z,4.45
2023-02-28T08:22:58.506Z,4.55
2023-02-28T08:25:25.075Z,3.80
2023-02-28T08:27:53.255Z,4.05
2023-02-28T08:30:20.093Z,4.22
2023-02-28T08:32:46.838Z,4.22
2023-02-28T08:35:13.653Z,3.92
2023-02-28T08:37:40.229Z,4.22
2023-02-28T08:40:07.676Z,4.07
2023-02-28T08:42:34.518Z,3.53
2023-02-28T08:45:01.245Z,4.50
2023-02-28T08:47:27.798Z,4.22
2023-02-28T08:49:54.540Z,4.03
2023-02-28T08:52:21.068Z,3.95
2023-02-28T08:54:47.892Z,4.03
2023-02-28T08:57:14.640Z,3.50
2023-02-28T08:59:41.300Z,3.80
2023-02-28T09:02:13.145Z,3.53
2023-02-28T09:04:39.704Z,4.35
2023-02-28T09:07:06.314Z,4.10
2023-02-28T09:09:34.853Z,3.85
2023-02-28T09:12:01.500Z,4.05
2023-02-28T09:14:28.049Z,3.47
2023-02-28T09:16:54.681Z,3.50
2023-02-28T09:19:21.479Z,3.78
2023-02-28T09:21:47.998Z,3.58
2023-02-28T09:24:16.196Z,3.53
2023-02-28T09:26:55.861Z,3.78
2023-02-28T09:29:29.709Z,3.85
2023-02-28T09:31:58.554Z,3.83
2023-02-28T09:34:26.427Z,3.58
2023-02-28T09:36:55.776Z,4.05
2023-02-28T09:39:23.536Z,3.60
2023-02-28T09:41:53.370Z,3.45
2023-02-28T09:44:44.895Z,3.40
2023-02-28T09:47:19.241Z,3.60
2023-02-28T09:49:48.872Z,3.33
2023-02-28T09:52:20.562Z,3.28
2023-02-28T09:54:47.190Z,3.55
2023-02-28T09:57:41.276Z,3.22
2023-02-28T10:00:25.626Z,3.40
2023-02-28T10:03:40.374Z,3.25
2023-02-28T10:06:17.952Z,3.38
2023-02-28T10:09:02.893Z,3.45
2023-02-28T10:11:32.759Z,3.08
2023-02-28T10:14:06.859Z,3.38
2023-02-28T10:16:41.333Z,3.00
2023-02-28T10:19:16.107Z,2.92
2023-02-28T10:21:49.866Z,3.08
2023-02-28T10:24:28.270Z,2.78
2023-02-28T10:27:01.642Z,3.10
2023-02-28T10:29:32.782Z,3.33
2023-02-28T10:32:03.253Z,2.90
2023-02-28T10:34:29.830Z,3.58
2023-02-28T10:36:57.235Z,3.03
2023-02-28T10:39:38.488Z,3.47
2023-02-28T10:42:06.516Z,2.90
2023-02-28T10:44:33.251Z,3.13
2023-02-28T10:47:01.126Z,3.55
2023-02-28T10:49:31.457Z,3.10
2023-02-28T10:52:01.028Z,3.33
2023-02-28T10:54:36.467Z,2.83
2023-02-28T10:57:18.762Z,3.72
2023-02-28T10:59:45.991Z,3.08
2023-02-28T11:02:36.202Z,2.95
2023-02-28T11:05:03.615Z,3.15
2023-02-28T11:07:37.301Z,3.28
2023-02-28T11:10:10.119Z,3.10
2023-02-28T11:12:52.317Z,3.13
2023-02-28T11:15:22.142Z,3.25
2023-02-28T11:18:01.388Z,3.63
2023-02-28T11:20:32.628Z,3.20
2023-02-28T11:23:02.744Z,3.03
2023-02-28T11:25:38.846Z,3.00
2023-02-28T11:28:24.140Z,2.90
2023-02-28T11:31:03.707Z,3.58
2023-02-28T11:33:33.274Z,3.95
2023-02-28T11:36:05.656Z,3.15
2023-02-28T11:38:36.013Z,3.00
2023-02-28T11:41:08.669Z,3.22
2023-02-28T11:43:51.916Z,3.13
2023-02-28T11:46:28.429Z,2.72
2023-02-28T11:49:14.529Z,3.20
2023-02-28T11:52:16.522Z,3.28
2023-02-28T11:54:45.815Z,3.28
2023-02-28T11:57:18.481Z,2.80
2023-02-28T12:00:02.997Z,3.08
2023-02-28T12:03:00.122Z,2.95
2023-02-28T12:05:50.875Z,3.13
2023-02-28T12:08:23.536Z,3.00
2023-02-28T12:10:52.984Z,3.28
2023-02-28T12:13:28.072Z,3.28
2023-02-28T12:16:00.795Z,3.05
2023-02-28T12:18:39.716Z,3.47
2023-02-28T12:21:27.879Z,3.53
2023-02-28T12:24:09.472Z,3.90
2023-02-28T12:26:50.401Z,4.28
2023-02-28T12:29:35.164Z,3.70
2023-02-28T12:32:14.385Z,4.35
2023-02-28T12:34:56.170Z,4.00
2023-02-28T12:37:41.151Z,4.32
2023-02-28T12:40:20.135Z,4.90
2023-02-28T12:42:51.685Z,4.10
2023-02-28T12:45:22.836Z,4.30
2023-02-28T12:48:00.794Z,3.50
2023-02-28T12:50:28.427Z,4.15
2023-02-28T12:53:30.472Z,4.63
2023-02-28T12:56:11.934Z,3.90
2023-02-28T12:58:50.528Z,4.20
2023-02-28T13:01:44.034Z,4.30
2023-02-28T13:04:44.497Z,4.55
2023-02-28T13:07:13.966Z,4.05
2023-02-28T13:09:41.275Z,4.10
2023-02-28T13:12:17.729Z,4.68
2023-02-28T13:14:44.636Z,4.30
2023-02-28T13:17:16.680Z,4.60
2023-02-28T13:22:40.915Z,4.32
2023-02-28T13:25:26.045Z,4.45
2023-02-28T13:27:57.880Z,4.55
2023-02-28T13:33:32.486Z,3.70
2023-02-28T13:36:14.575Z,4.07
2023-02-28T13:41:37.160Z,4.18
2023-02-28T13:44:29.762Z,4.65
2023-02-28T13:46:56.973Z,4.32
2023-02-28T13:49:23.874Z,4.85
2023-02-28T13:51:54.343Z,4.00
2023-02-28T13:54:39.816Z,4.03
2023-02-28T13:57:21.546Z,4.18
2023-02-28T14:00:06.545Z,11.57
2023-02-28T14:02:50.108Z,4.72
2023-02-28T14:05:19.165Z,4.60
2023-02-28T14:07:52.388Z,5.43
2023-02-28T14:10:27.379Z,8.00
2023-02-28T14:13:04.731Z,5.03
2023-02-28T14:15:34.373Z,6.93
2023-02-28T14:18:12.691Z,4.90
2023-02-28T14:20:42.013Z,5.00
2023-02-28T14:23:19.266Z,5.80
2023-02-28T14:25:54.601Z,5.82
2023-02-28T14:28:36.088Z,5.80
2023-02-28T14:31:12.362Z,6.45
2023-02-28T14:34:00.012Z,7.03
2023-02-28T14:36:38.185Z,5.80
2023-02-28T14:39:21.339Z,5.80
2023-02-28T14:41:48.195Z,4.40
2023-02-28T14:44:26.845Z,4.60
2023-02-28T14:46:56.149Z,13.68
2023-02-28T14:49:28.671Z,6.28
2023-02-28T14:52:10.633Z,7.05
2023-02-28T14:54:38.823Z,8.23
2023-02-28T14:57:06.062Z,6.60
2023-02-28T14:59:37.094Z,6.55
2023-02-28T15:02:24.168Z,8.60
2023-02-28T15:04:58.357Z,6.15
2023-02-28T15:07:29.513Z,7.90
2023-02-28T15:10:32.081Z,5.72
2023-02-28T15:13:01.981Z,10.90
2023-02-28T15:16:04.248Z,9.32
2023-02-28T15:21:25.335Z,7.70
2023-02-28T15:24:00.253Z,5.22
2023-02-28T15:26:33.209Z,5.80
2023-02-28T15:29:07.882Z,6.65
2023-02-28T15:31:55.782Z,4.50
2023-02-28T15:34:42.273Z,4.82
2023-02-28T15:37:38.441Z,4.75
2023-02-28T15:40:28.038Z,4.60
2023-02-28T15:43:06.092Z,4.50
2023-02-28T15:45:51.335Z,4.60
2023-02-28T15:48:24.102Z,4.82
2023-02-28T15:51:12.115Z,4.72
2023-02-28T15:54:03.723Z,5.35
2023-02-28T15:56:33.125Z,4.75
2023-02-28T15:59:06.382Z,5.13
2023-02-28T16:01:39.823Z,5.35
2023-02-28T16:04:18.718Z,4.88
2023-02-28T16:06:45.827Z,5.53
2023-02-28T16:09:17.197Z,6.22
2023-02-28T16:11:53.600Z,6.05
2023-02-28T16:14:26.073Z,6.10
2023-02-28T16:16:58.202Z,6.22
2023-02-28T16:19:25.152Z,6.13
2023-02-28T16:21:52.241Z,6.47
2023-02-28T16:24:19.014Z,7.13
2023-02-28T16:26:49.250Z,6.00
2023-02-28T16:29:25.278Z,6.22
2023-02-28T16:31:51.898Z,7.57
2023-02-28T16:34:18.464Z,9.80
2023-02-28T16:36:48.128Z,6.72
2023-02-28T16:39:14.956Z,6.30
2023-02-28T16:41:46.731Z,7.13
2023-02-28T16:44:35.001Z,7.10
2023-02-28T16:47:03.764Z,6.70
2023-02-28T16:49:30.690Z,6.50
2023-02-28T16:51:57.699Z,6.95
2023-02-28T16:54:24.364Z,6.88
2023-02-28T16:56:51.275Z,6.80
2023-02-28T16:59:22.450Z,6.35
2023-02-28T17:01:49.193Z,7.25
2023-02-28T17:04:16.785Z,7.07
2023-02-28T17:06:43.626Z,7.07
2023-02-28T17:09:28.252Z,7.18
2023-02-28T17:11:57.784Z,7.60
2023-02-28T17:14:24.596Z,7.32
2023-02-28T17:16:51.390Z,8.23
2023-02-28T17:19:19.368Z,9.63
2023-02-28T17:21:45.987Z,12.07
2023-02-28T17:24:29.834Z,11.32
2023-02-28T17:26:57.022Z,10.73
2023-02-28T17:29:25.368Z,10.68
2023-02-28T17:31:52.071Z,10.98
2023-02-28T17:34:22.563Z,9.15
2023-02-28T17:36:50.970Z,8.20
2023-02-28T17:39:28.414Z,9.25
2023-02-28T17:41:56.286Z,10.55
2023-02-28T17:44:24.845Z,8.32
2023-02-28T17:46:51.955Z,8.45
2023-02-28T17:49:19.110Z,7.28
2023-02-28T17:51:45.809Z,7.43
2023-02-28T17:54:12.362Z,7.80
2023-02-28T17:56:38.908Z,7.07
2023-02-28T17:59:05.579Z,13.82
2023-02-28T18:01:32.324Z,11.45
2023-02-28T18:03:58.870Z,12.32
2023-02-28T18:06:32.336Z,9.73
2023-02-28T18:08:59.108Z,8.77
2023-02-28T18:11:27.176Z,9.75
2023-02-28T18:13:56.740Z,10.43
2023-02-28T18:16:23.668Z,8.98
2023-02-28T18:18:50.578Z,8.73
2023-02-28T18:21:17.506Z,8.90
2023-02-28T18:23:52.126Z,9.35
2023-02-28T18:26:20.077Z,9.05
2023-02-28T18:28:47.416Z,8.23
2023-02-28T18:31:17.291Z,7.32
2023-02-28T18:33:45.221Z,8.25
2023-02-28T18:36:11.829Z,7.40
2023-02-28T18:38:39.055Z,8.35
2023-02-28T18:41:07.508Z,7.63
2023-02-28T18:43:36.261Z,7.63
2023-02-28T18:46:07.591Z,6.88
2023-02-28T18:48:34.681Z,7.40
2023-02-28T18:51:19.366Z,7.40
2023-02-28T18:53:46.447Z,7.53
2023-02-28T18:56:15.808Z,7.60
2023-02-28T18:58:42.891Z,6.60
2023-02-28T19:01:29.980Z,7.28
2023-02-28T19:03:57.758Z,7.93
2023-02-28T19:06:24.462Z,7.50
2023-02-28T19:08:55.293Z,7.10
2023-02-28T19:11:22.616Z,7.03
2023-02-28T19:13:49.282Z,7.05
2023-02-28T19:16:19.085Z,7.75
2023-02-28T19:18:45.689Z,8.23
2023-02-28T19:21:14.292Z,8.15
2023-02-28T19:23:41.323Z,7.85
2023-02-28T19:26:10.144Z,7.50
2023-02-28T19:28:37.320Z,8.05
2023-02-28T19:31:04.386Z,7.82
2023-02-28T19:33:31.253Z,7.55
2023-02-28T19:36:01.462Z,8.32
2023-02-28T19:38:28.242Z,7.85
2023-02-28T19:41:02.535Z,8.02
2023-02-28T19:43:29.096Z,7.03
2023-02-28T19:45:55.675Z,7.80
2023-02-28T19:48:26.219Z,7.38
2023-02-28T19:51:01.440Z,8.10
2023-02-28T19:53:30.598Z,7.75
2023-02-28T19:55:57.289Z,7.80
2023-02-28T19:58:24.008Z,8.35
2023-02-28T20:00:50.702Z,7.60
2023-02-28T20:03:18.535Z,9.93
2023-02-28T20:05:46.188Z,8.13
2023-02-28T20:08:13.707Z,7.75
2023-02-28T20:10:40.436Z,7.78
2023-02-28T20:13:07.049Z,7.45
2023-02-28T20:15:33.790Z,7.80
2023-02-28T20:18:00.551Z,7.75
2023-02-28T20:20:27.240Z,7.80
2023-02-28T20:22:53.831Z,7.70
2023-02-28T20:25:20.968Z,7.90
2023-02-28T20:27:47.632Z,7.40
2023-02-28T20:30:14.374Z,7.18
2023-02-28T20:32:40.957Z,6.95
2023-02-28T20:35:10.660Z,7.15
2023-02-28T20:37:37.623Z,7.10
2023-02-28T20:40:04.784Z,7.18
2023-02-28T20:42:31.444Z,6.72
2023-02-28T20:44:58.016Z,7.35
2023-02-28T20:47:24.720Z,7.28
2023-02-28T20:49:51.243Z,7.47
2023-02-28T20:52:17.776Z,7.20
2023-02-28T20:54:44.575Z,7.28
2023-02-28T20:57:11.163Z,7.05
2023-02-28T20:59:39.858Z,7.10
2023-02-28T21:02:07.238Z,7.40
2023-02-28T21:04:34.027Z,7.03
2023-02-28T21:07:00.617Z,6.68
2023-02-28T21:09:28.990Z,6.82
2023-02-28T21:11:55.711Z,6.88
2023-02-28T21:14:22.393Z,7.22
2023-02-28T21:16:49.071Z,6.68
2023-02-28T21:19:16.972Z,6.97
2023-02-28T21:21:44.879Z,7.22
2023-02-28T21:24:13.116Z,7.00
2023-02-28T21:26:40.882Z,6.68
2023-02-28T21:29:07.885Z,7.20
2023-02-28T21:31:35.789Z,6.57
2023-02-28T21:34:04.920Z,6.63
2023-02-28T21:36:36.020Z,6.65
2023-02-28T21:39:09.197Z,7.00
2023-02-28T21:41:36.477Z,6.35
2023-02-28T21:44:03.264Z,6.25
2023-02-28T21:46:34.336Z,6.55
2023-02-28T21:49:01.147Z,6.63
2023-02-28T21:51:31.298Z,6.55
2023-02-28T21:53:59.656Z,6.57
2023-02-28T21:56:29.581Z,6.80
2023-02-28T21:59:00.531Z,6.35
2023-02-28T22:01:38.812Z,6.95
2023-02-28T22:04:08.935Z,6.88
2023-02-28T22:06:39.416Z,7.28
2023-02-28T22:09:07.964Z,6.88
2023-02-28T22:11:36.862Z,6.10
2023-02-28T22:14:03.437Z,6.15
2023-02-28T22:16:40.752Z,6.63
2023-02-28T22:19:16.543Z,6.80
2023-02-28T22:21:43.070Z,6.43
2023-02-28T22:24:11.345Z,6.60
2023-02-28T22:26:38.010Z,5.70
2023-02-28T22:29:04.632Z,6.15
2023-02-28T22:31:33.637Z,6.30
2023-02-28T22:34:05.962Z,5.68
2023-02-28T22:36:33.191Z,5.90
2023-02-28T22:39:01.099Z,5.78
2023-02-28T22:41:28.928Z,5.88
2023-02-28T22:43:59.300Z,6.13
2023-02-28T22:46:27.321Z,6.40
2023-02-28T22:48:53.992Z,6.38
2023-02-28T22:51:25.519Z,5.90
2023-02-28T22:53:54.094Z,6.00
2023-02-28T22:56:22.442Z,6.13
2023-02-28T22:58:50.873Z,5.90
2023-02-28T23:01:18.817Z,5.65
2023-02-28T23:03:45.611Z,5.65
2023-02-28T23:06:14.114Z,5.95
2023-02-28T23:08:41.266Z,6.10
2023-02-28T23:11:08.116Z,6.43
2023-02-28T23:13:34.952Z,5.55
2023-02-28T23:16:05.050Z,6.40
2023-02-28T23:18:31.622Z,6.03
2023-02-28T23:20:58.173Z,6.85
2023-02-28T23:23:24.865Z,5.90
2023-02-28T23:25:51.404Z,5.70
2023-02-28T23:28:17.944Z,5.88
2023-02-28T23:30:44.477Z,5.72
2023-02-28T23:33:11.021Z,5.90
2023-02-28T23:35:38.037Z,5.95
2023-02-28T23:38:05.151Z,5.53
2023-02-28T23:40:31.683Z,5.93
2023-02-28T23:42:58.153Z,5.72
2023-02-28T23:45:24.778Z,6.03
2023-02-28T23:47:51.382Z,6.20
2023-02-28T23:50:18.039Z,6.35
2023-02-28T23:52:44.581Z,5.55
2023-02-28T23:55:11.364Z,6.22
2023-02-28T23:57:37.928Z,6.28
